Time;durP1;ratioP1;P1;durP2;ratioP2;P2;SDS_P1;SDS_P2;PMS_P1;PMS_P2;Temp;Humidity;BMP_temperature;BMP_pressure;BME280_temperature;BME280_humidity;BME280_pressure;Samples;Min_cycle;Max_cycle;Signal;HPM_P1;HPM_P2
2022/10/17 00:01:13;;;;;;;1.10;1.00;;;16.50;89.40;;;;;;5053226;28;20439;-72
2022/10/17 00:03:41;;;;;;;2.13;0.93;;;16.60;89.80;;;;;;5056102;28;20550;-71
2022/10/17 00:06:12;;;;;;;1.23;1.13;;;16.50;89.70;;;;;;5060671;28;20518;-72
2022/10/17 00:08:42;;;;;;;1.30;1.00;;;16.60;89.70;;;;;;5049815;28;20490;-72
2022/10/17 00:11:15;;;;;;;1.37;1.27;;;16.50;89.20;;;;;;5067093;28;20463;-74
2022/10/17 00:13:43;;;;;;;2.90;1.27;;;16.60;89.50;;;;;;5043993;28;20462;-75
2022/10/17 00:16:13;;;;;;;1.20;1.10;;;16.60;89.80;;;;;;5051055;28;21111;-73
2022/10/17 00:18:42;;;;;;;1.20;1.10;;;16.60;89.80;;;;;;5059345;28;20497;-73
2022/10/17 00:21:16;;;;;;;1.97;1.57;;;16.60;89.80;;;;;;5117712;22;20482;-70
2022/10/17 00:23:47;;;;;;;1.53;1.43;;;16.60;89.80;;;;;;5078342;28;20505;-70
2022/10/17 00:26:16;;;;;;;1.30;1.20;;;16.60;89.80;;;;;;5087183;28;20525;-69
2022/10/17 00:28:46;;;;;;;2.13;1.10;;;16.50;89.70;;;;;;5063754;28;20577;-71
2022/10/17 00:31:18;;;;;;;1.90;1.73;;;16.50;90.30;;;;;;5035257;28;20470;-71
2022/10/17 00:33:47;;;;;;;1.87;1.60;;;16.50;90.10;;;;;;5040716;28;20497;-70
2022/10/17 00:36:18;;;;;;;1.77;1.40;;;16.50;90.20;;;;;;5046013;28;20472;-71
2022/10/17 00:38:48;;;;;;;2.40;1.67;;;16.60;90.20;;;;;;5056280;28;20474;-70
2022/10/17 00:41:19;;;;;;;1.30;1.20;;;16.50;90.10;;;;;;5049629;28;20787;-70
2022/10/17 00:43:52;;;;;;;1.67;1.57;;;16.50;89.60;;;;;;5079007;28;20466;-70
2022/10/17 00:46:23;;;;;;;1.30;1.10;;;16.50;89.90;;;;;;5082593;28;20450;-70
2022/10/17 00:48:55;;;;;;;1.50;1.40;;;16.50;90.00;;;;;;5077036;28;20471;-70
2022/10/17 00:51:33;;;;;;;3.70;1.60;;;16.60;90.20;;;;;;5065661;28;20497;-70
2022/10/17 00:54:03;;;;;;;1.70;1.47;;;16.60;90.20;;;;;;5064767;28;21068;-70
2022/10/17 00:56:32;;;;;;;1.20;1.10;;;16.60;90.10;;;;;;5066340;28;20532;-70
2022/10/17 00:59:02;;;;;;;1.60;1.50;;;16.60;90.20;;;;;;5062540;28;20505;-70
2022/10/17 01:01:31;;;;;;;1.80;1.50;;;16.60;90.20;;;;;;5066667;28;20453;-70
2022/10/17 01:04:00;;;;;;;1.80;1.70;;;16.50;90.30;;;;;;5081408;28;20486;-70
2022/10/17 01:06:28;;;;;;;1.40;1.30;;;16.60;90.30;;;;;;5066922;28;20430;-70
2022/10/17 01:08:57;;;;;;;1.83;1.53;;;16.60;90.60;;;;;;5056234;28;20477;-70
2022/10/17 01:11:36;;;;;;;2.70;1.50;;;16.60;90.30;;;;;;5067121;28;20899;-70
2022/10/17 01:14:09;;;;;;;1.70;1.60;;;16.50;90.30;;;;;;5082661;28;20835;-70
2022/10/17 01:16:47;;;;;;;1.83;1.53;;;16.60;90.40;;;;;;5050566;28;20426;-70
2022/10/17 01:19:38;;;;;;;2.07;1.87;;;16.50;90.40;;;;;;5041784;28;20584;-70
2022/10/17 01:22:12;;;;;;;1.70;1.60;;;16.50;90.40;;;;;;5076750;28;20458;-71
2022/10/17 01:25:06;;;;;;;1.80;1.47;;;16.50;90.50;;;;;;5068798;28;20434;-70
2022/10/17 01:27:59;;;;;;;1.87;1.60;;;16.60;90.40;;;;;;5069572;28;20495;-70
2022/10/17 01:30:50;;;;;;;1.67;1.53;;;16.60;90.40;;;;;;5082539;28;20435;-70
2022/10/17 01:33:30;;;;;;;1.77;1.50;;;16.60;90.60;;;;;;5060745;28;20474;-70
2022/10/17 01:36:04;;;;;;;1.73;1.60;;;16.60;90.40;;;;;;5081715;28;20442;-70
2022/10/17 01:38:40;;;;;;;2.10;1.90;;;16.60;90.70;;;;;;5084870;28;20481;-70
2022/10/17 01:41:16;;;;;;;2.10;1.90;;;16.60;90.70;;;;;;5069588;28;20434;-70
2022/10/17 01:43:50;;;;;;;1.90;1.80;;;16.50;90.70;;;;;;5075723;28;20470;-70
2022/10/17 01:46:25;;;;;;;1.63;1.50;;;16.60;90.60;;;;;;5049869;28;20444;-71
2022/10/17 01:48:57;;;;;;;7.60;3.10;;;16.50;90.50;;;;;;5077789;28;20469;-70
2022/10/17 01:51:30;;;;;;;2.67;1.73;;;16.60;90.60;;;;;;5086707;28;20465;-71
2022/10/17 01:54:02;;;;;;;2.07;1.87;;;16.50;90.80;;;;;;5084304;28;20480;-70
2022/10/17 01:56:34;;;;;;;1.80;1.70;;;16.50;90.90;;;;;;5070078;28;20564;-71
2022/10/17 01:59:10;;;;;;;2.87;1.70;;;16.60;90.80;;;;;;5077840;28;20519;-70
2022/10/17 02:01:41;;;;;;;2.13;1.93;;;16.50;90.60;;;;;;5078464;28;20802;-70
2022/10/17 02:04:11;;;;;;;2.93;2.20;;;16.60;90.90;;;;;;5064966;28;21052;-70
2022/10/17 02:06:43;;;;;;;2.10;1.93;;;16.60;90.70;;;;;;5060662;28;20900;-70
2022/10/17 02:09:19;;;;;;;1.90;1.70;;;16.50;90.60;;;;;;5042972;28;20917;-70
2022/10/17 02:12:06;;;;;;;2.40;2.20;;;16.60;90.80;;;;;;5055151;28;20532;-71
2022/10/17 02:14:49;;;;;;;2.00;1.60;;;16.60;90.90;;;;;;5051301;28;20496;-70
2022/10/17 02:17:29;;;;;;;1.80;1.43;;;16.50;90.70;;;;;;5047054;28;20509;-71
2022/10/17 02:20:09;;;;;;;4.00;1.93;;;16.60;90.80;;;;;;5061668;28;20431;-70
2022/10/17 02:22:43;;;;;;;1.90;1.80;;;16.60;90.90;;;;;;5058890;28;20470;-70
2022/10/17 02:25:21;;;;;;;2.37;1.87;;;16.60;90.70;;;;;;5065068;28;20442;-70
2022/10/17 02:27:58;;;;;;;1.40;1.30;;;16.50;90.80;;;;;;5057308;28;20466;-70
2022/10/17 02:30:33;;;;;;;1.80;1.70;;;16.50;90.70;;;;;;5070756;28;20794;-71
2022/10/17 02:33:08;;;;;;;3.17;2.60;;;16.60;90.70;;;;;;5037178;28;20469;-70
2022/10/17 02:35:43;;;;;;;2.60;2.20;;;16.60;90.90;;;;;;5067136;28;20529;-70
2022/10/17 02:38:13;;;;;;;3.63;2.60;;;16.60;90.90;;;;;;5047566;28;20896;-70
2022/10/17 02:40:46;;;;;;;2.30;2.10;;;16.60;91.10;;;;;;5063841;28;20442;-71
2022/10/17 02:43:15;;;;;;;2.00;1.90;;;16.60;91.00;;;;;;5044206;28;20463;-71
2022/10/17 02:45:43;;;;;;;2.43;2.23;;;16.60;91.60;;;;;;5066992;28;20982;-70
2022/10/17 02:48:18;;;;;;;2.30;2.10;;;16.60;91.00;;;;;;5039590;28;20474;-70
2022/10/17 02:50:55;;;;;;;2.07;1.70;;;16.50;91.00;;;;;;5054372;28;20480;-70
2022/10/17 02:53:30;;;;;;;2.33;2.13;;;16.60;91.10;;;;;;5065269;28;20537;-70
2022/10/17 02:56:08;;;;;;;4.40;2.10;;;16.50;91.00;;;;;;5053760;28;20430;-70
2022/10/17 02:58:38;;;;;;;2.30;2.10;;;16.50;91.00;;;;;;5062048;28;20535;-71
2022/10/17 03:01:07;;;;;;;2.53;2.27;;;16.50;91.10;;;;;;5055464;28;20537;-70
2022/10/17 03:03:36;;;;;;;2.57;1.70;;;16.50;91.10;;;;;;5050989;28;20458;-70
2022/10/17 03:06:06;;;;;;;2.20;2.00;;;16.60;91.20;;;;;;5069244;28;20446;-70
2022/10/17 03:08:34;;;;;;;3.00;2.30;;;16.50;91.10;;;;;;5052016;28;20996;-70
2022/10/17 03:11:03;;;;;;;2.17;1.83;;;16.50;91.20;;;;;;5050899;28;20530;-70
2022/10/17 03:13:32;;;;;;;2.63;2.10;;;16.60;91.20;;;;;;5046589;28;20999;-71
2022/10/17 03:16:07;;;;;;;2.13;1.80;;;16.60;91.10;;;;;;5061950;28;20472;-70
2022/10/17 03:18:36;;;;;;;2.40;2.20;;;16.60;91.10;;;;;;5076019;28;20510;-70
2022/10/17 03:21:06;;;;;;;2.50;2.17;;;16.50;91.00;;;;;;5088273;28;20460;-70
2022/10/17 03:23:35;;;;;;;1.83;1.73;;;16.60;90.90;;;;;;5082020;28;20564;-70
2022/10/17 03:26:06;;;;;;;1.77;1.67;;;16.60;91.00;;;;;;5074373;28;20498;-70
2022/10/17 03:28:35;;;;;;;2.57;2.20;;;16.60;91.20;;;;;;5070664;28;20556;-70
2022/10/17 03:31:08;;;;;;;1.70;1.60;;;16.50;91.00;;;;;;5069430;28;20823;-70
2022/10/17 03:33:38;;;;;;;2.27;2.00;;;16.60;90.90;;;;;;5064730;28;20553;-70
2022/10/17 03:36:11;;;;;;;2.50;2.30;;;16.50;91.00;;;;;;5051059;28;20440;-70
2022/10/17 03:38:39;;;;;;;2.40;2.20;;;16.50;90.90;;;;;;5063027;28;21007;-70
2022/10/17 03:41:08;;;;;;;2.53;2.33;;;16.60;91.00;;;;;;5057608;28;20442;-70
2022/10/17 03:43:39;;;;;;;5.20;2.50;;;16.50;90.90;;;;;;5050496;28;20469;-70
2022/10/17 03:46:08;;;;;;;2.60;2.40;;;16.60;91.00;;;;;;5046428;28;20896;-70
2022/10/17 03:48:37;;;;;;;2.93;2.30;;;16.60;90.90;;;;;;5050684;28;21019;-71
2022/10/17 03:51:10;;;;;;;2.23;2.10;;;16.50;91.10;;;;;;5051224;28;20446;-70
2022/10/17 03:53:46;;;;;;;2.80;2.60;;;16.60;91.20;;;;;;5068362;28;20520;-70
2022/10/17 03:56:16;;;;;;;2.43;2.20;;;16.60;91.10;;;;;;5050551;28;20438;-71
2022/10/17 03:58:51;;;;;;;2.73;2.23;;;16.50;91.20;;;;;;5050313;28;20470;-70
2022/10/17 04:01:19;;;;;;;2.60;2.03;;;16.50;91.00;;;;;;5064466;28;20557;-70
2022/10/17 04:03:50;;;;;;;2.33;2.13;;;16.50;91.00;;;;;;5050280;28;20474;-70
2022/10/17 04:06:21;;;;;;;3.37;2.10;;;16.60;91.20;;;;;;5052829;28;20884;-71
2022/10/17 04:08:50;;;;;;;3.87;2.97;;;16.60;91.30;;;;;;5062040;28;20482;-70
2022/10/17 04:11:33;;;;;;;3.30;2.20;;;16.50;91.10;;;;;;5047584;28;20544;-70
2022/10/17 04:14:03;;;;;;;2.37;2.10;;;16.60;91.30;;;;;;5063755;28;20478;-70
2022/10/17 04:16:32;;;;;;;2.17;1.97;;;16.60;91.30;;;;;;5067919;28;20832;-70
2022/10/17 04:19:04;;;;;;;2.40;2.20;;;16.60;91.40;;;;;;5054387;28;20474;-70
2022/10/17 04:21:41;;;;;;;4.47;2.20;;;16.60;91.20;;;;;;5073817;28;21260;-70
2022/10/17 04:24:11;;;;;;;4.50;2.40;;;16.60;91.20;;;;;;5051435;28;20520;-70
2022/10/17 04:26:51;;;;;;;3.00;2.40;;;16.60;91.20;;;;;;5061362;28;20526;-70
2022/10/17 04:29:22;;;;;;;2.60;2.40;;;16.60;91.00;;;;;;5066956;28;20466;-71
2022/10/17 04:31:54;;;;;;;2.60;2.40;;;16.60;91.30;;;;;;5052837;28;20821;-70
2022/10/17 04:34:30;;;;;;;2.70;2.33;;;16.60;91.20;;;;;;5050252;28;20470;-71
2022/10/17 04:37:00;;;;;;;2.30;2.10;;;16.50;91.30;;;;;;5049468;28;20540;-70
2022/10/17 04:39:30;;;;;;;2.70;2.50;;;16.50;91.20;;;;;;5049615;28;20438;-71
2022/10/17 04:41:58;;;;;;;2.50;2.03;;;16.50;91.10;;;;;;5066092;28;20473;-70
2022/10/17 04:44:29;;;;;;;2.47;2.17;;;16.60;91.30;;;;;;5060571;28;20945;-70
2022/10/17 04:46:59;;;;;;;2.73;2.53;;;16.50;91.00;;;;;;5055623;28;20462;-70
2022/10/17 04:49:27;;;;;;;3.03;2.73;;;16.60;91.30;;;;;;5053672;28;20437;-70
2022/10/17 04:52:02;;;;;;;2.67;2.47;;;16.60;91.30;;;;;;5056747;28;20990;-70
2022/10/17 04:54:37;;;;;;;4.37;2.00;;;16.60;91.30;;;;;;5084053;28;20560;-70
2022/10/17 04:57:09;;;;;;;2.80;2.60;;;16.60;91.50;;;;;;5050529;28;20461;-70
2022/10/17 04:59:39;;;;;;;2.30;2.10;;;16.50;91.40;;;;;;5049638;28;20438;-70
2022/10/17 05:02:26;;;;;;;2.70;2.37;;;16.60;91.50;;;;;;5060626;28;20434;-70
2022/10/17 05:04:55;;;;;;;2.90;2.53;;;16.60;91.20;;;;;;5050764;28;20435;-70
2022/10/17 05:07:25;;;;;;;2.43;2.23;;;16.60;91.20;;;;;;5066414;28;21008;-70
2022/10/17 05:10:03;;;;;;;2.73;2.53;;;16.60;91.30;;;;;;5068778;28;20804;-70
2022/10/17 05:12:32;;;;;;;1.97;1.87;;;16.50;91.20;;;;;;5085404;28;20448;-70
2022/10/17 05:15:01;;;;;;;2.57;2.37;;;16.60;91.20;;;;;;5059873;28;20948;-70
2022/10/17 05:17:30;;;;;;;2.90;2.50;;;16.50;91.00;;;;;;5046943;28;20529;-70
2022/10/17 05:19:59;;;;;;;2.53;2.33;;;16.60;91.20;;;;;;5058942;28;20501;-70
2022/10/17 05:22:32;;;;;;;2.90;2.50;;;16.60;91.10;;;;;;5017298;28;20451;-70
2022/10/17 05:25:06;;;;;;;2.20;2.10;;;16.50;91.20;;;;;;5049193;28;20524;-70
2022/10/17 05:27:34;;;;;;;2.37;2.17;;;16.50;90.90;;;;;;5059177;28;20473;-70
2022/10/17 05:30:03;;;;;;;2.60;2.40;;;16.60;91.10;;;;;;5050102;28;20504;-70
2022/10/17 05:32:34;;;;;;;2.60;2.40;;;16.50;91.00;;;;;;5052072;28;20486;-70
2022/10/17 05:35:03;;;;;;;3.13;2.30;;;16.60;91.00;;;;;;5068616;28;20469;-63
2022/10/17 05:37:34;;;;;;;2.20;2.10;;;16.50;90.90;;;;;;5049823;28;21019;-63
2022/10/17 05:40:04;;;;;;;3.00;2.60;;;16.50;90.90;;;;;;5049508;28;20450;-63
2022/10/17 05:42:32;;;;;;;2.40;2.20;;;16.60;91.10;;;;;;5049140;28;20442;-63
2022/10/17 05:45:02;;;;;;;2.37;2.17;;;16.60;91.10;;;;;;5049565;28;20438;-63
2022/10/17 05:47:30;;;;;;;2.23;2.03;;;16.50;90.90;;;;;;5048916;28;20478;-63
2022/10/17 05:50:00;;;;;;;4.57;2.30;;;16.60;90.70;;;;;;5050164;28;20456;-63
2022/10/17 05:52:37;;;;;;;3.77;2.83;;;16.50;90.70;;;;;;5064919;28;20445;-63
2022/10/17 05:55:12;;;;;;;2.60;2.40;;;16.50;90.60;;;;;;5049724;28;20492;-63
2022/10/17 05:57:40;;;;;;;3.10;2.80;;;16.60;90.60;;;;;;5067961;28;20500;-63
2022/10/17 06:00:14;;;;;;;3.20;2.43;;;16.60;90.70;;;;;;5050554;28;21005;-63
2022/10/17 06:02:45;;;;;;;2.33;2.13;;;16.50;90.50;;;;;;5049293;28;20434;-63
2022/10/17 06:05:16;;;;;;;2.63;2.43;;;16.50;90.60;;;;;;5066742;28;20536;-63
2022/10/17 06:07:46;;;;;;;2.33;2.13;;;16.50;90.50;;;;;;5064850;28;20536;-63
2022/10/17 06:10:17;;;;;;;2.63;2.43;;;16.50;90.50;;;;;;5067408;28;20870;-63
2022/10/17 06:12:46;;;;;;;2.40;2.20;;;16.50;90.50;;;;;;5053119;28;20470;-63
2022/10/17 06:15:15;;;;;;;2.90;2.70;;;16.50;90.50;;;;;;5070859;28;20493;-63
2022/10/17 06:17:48;;;;;;;2.83;2.30;;;16.50;90.40;;;;;;5047814;28;20900;-63
2022/10/17 06:20:17;;;;;;;1.97;1.87;;;16.50;90.30;;;;;;5088551;22;20460;-72
2022/10/17 06:22:46;;;;;;;2.80;2.23;;;16.50;90.30;;;;;;5075093;28;20941;-71
2022/10/17 06:25:22;;;;;;;2.30;2.10;;;16.50;90.30;;;;;;5071740;28;20429;-71
2022/10/17 06:27:51;;;;;;;2.70;2.50;;;16.50;90.40;;;;;;5064834;28;20849;-72
2022/10/17 06:30:21;;;;;;;2.57;2.37;;;16.50;90.30;;;;;;5040862;28;20432;-73
2022/10/17 06:32:51;;;;;;;2.10;2.00;;;16.50;90.40;;;;;;5044305;28;20471;-72
2022/10/17 06:35:20;;;;;;;3.07;2.30;;;16.50;90.40;;;;;;5032585;28;20489;-72
2022/10/17 06:37:50;;;;;;;2.57;2.37;;;16.50;90.30;;;;;;5031203;28;20463;-72
2022/10/17 06:40:19;;;;;;;2.23;2.03;;;16.50;90.30;;;;;;5048102;28;20446;-71
2022/10/17 06:42:47;;;;;;;1.83;1.73;;;16.50;90.20;;;;;;5032329;28;20459;-71
2022/10/17 06:45:34;;;;;;;2.40;2.20;;;16.50;90.10;;;;;;5029154;28;20527;-71
2022/10/17 06:48:29;;;;;;;2.60;2.40;;;16.50;90.10;;;;;;5031099;28;20884;-72
2022/10/17 06:51:36;;;;;;;2.47;2.27;;;16.50;90.10;;;;;;4967985;28;20508;-71
2022/10/17 06:54:09;;;;;;;2.37;2.17;;;16.50;90.10;;;;;;5037784;28;20558;-71
2022/10/17 06:56:56;;;;;;;3.07;2.33;;;16.50;90.10;;;;;;5063754;28;20582;-71
2022/10/17 06:59:27;;;;;;;3.38;3.08;;;16.50;90.10;;;;;;5059695;28;20426;-71
2022/10/17 07:02:04;;;;;;;2.33;2.10;;;16.50;90.80;;;;;;5055379;28;20242;-72
2022/10/17 07:04:33;;;;;;;3.40;3.10;;;16.60;90.40;;;;;;5067937;28;20435;-71
2022/10/17 07:07:02;;;;;;;3.30;3.03;;;16.60;90.20;;;;;;5068373;28;20560;-72
2022/10/17 07:09:34;;;;;;;3.10;2.80;;;16.60;90.10;;;;;;5036559;28;20996;-71
2022/10/17 07:12:05;;;;;;;2.37;2.17;;;16.60;89.90;;;;;;5035040;28;20852;-72
2022/10/17 07:14:34;;;;;;;3.00;2.03;;;16.60;90.20;;;;;;5018917;28;20447;-71
2022/10/17 07:17:03;;;;;;;3.83;2.60;;;16.60;90.10;;;;;;5029036;28;20977;-70
2022/10/17 07:19:33;;;;;;;2.47;2.27;;;16.60;90.30;;;;;;5037322;28;20428;-71
2022/10/17 07:22:01;;;;;;;3.00;2.40;;;16.60;90.40;;;;;;5023813;28;20817;-72
2022/10/17 07:24:31;;;;;;;2.80;2.60;;;16.60;90.30;;;;;;5031307;28;20431;-71
2022/10/17 07:27:17;;;;;;;2.70;2.50;;;16.50;90.20;;;;;;5020785;28;20466;-71
2022/10/17 07:29:46;;;;;;;3.07;2.77;;;16.60;90.60;;;;;;5049136;28;20933;-72
2022/10/17 07:32:23;;;;;;;3.30;2.40;;;16.60;90.60;;;;;;5063904;28;20495;-72
2022/10/17 07:34:52;;;;;;;3.47;2.80;;;16.60;90.70;;;;;;5061927;28;20458;-71
2022/10/17 07:37:20;;;;;;;2.70;2.50;;;16.60;90.60;;;;;;5045096;28;20847;-72
2022/10/17 07:39:55;;;;;;;3.00;2.53;;;16.60;90.70;;;;;;5042167;28;20473;-71
2022/10/17 07:42:26;;;;;;;2.37;2.23;;;16.60;90.60;;;;;;5034628;28;20492;-72
2022/10/17 07:44:55;;;;;;;3.00;2.80;;;16.60;90.70;;;;;;5040758;28;20431;-72
2022/10/17 07:47:26;;;;;;;3.83;3.30;;;16.60;90.60;;;;;;5061989;28;20465;-72
2022/10/17 07:49:55;;;;;;;3.57;2.60;;;16.60;90.70;;;;;;5064757;28;20485;-72
2022/10/17 07:52:24;;;;;;;3.23;2.47;;;16.60;90.50;;;;;;5065109;28;20453;-70
2022/10/17 07:54:53;;;;;;;3.60;2.90;;;16.60;90.50;;;;;;5069695;28;20453;-69
2022/10/17 07:57:21;;;;;;;2.70;2.50;;;16.60;90.40;;;;;;5086896;28;20597;-69
2022/10/17 07:59:51;;;;;;;2.90;2.70;;;16.60;90.40;;;;;;5079373;28;20959;-69
2022/10/17 08:02:22;;;;;;;3.87;2.70;;;16.60;90.40;;;;;;5071860;28;20618;-68
2022/10/17 08:04:51;;;;;;;3.10;2.80;;;16.60;90.30;;;;;;5089458;28;20799;-68
2022/10/17 08:07:20;;;;;;;2.93;2.20;;;16.60;90.20;;;;;;5086168;28;20874;-68
2022/10/17 08:09:55;;;;;;;3.37;2.50;;;16.60;90.30;;;;;;5065066;28;20456;-68
2022/10/17 08:12:24;;;;;;;2.47;2.27;;;16.60;90.30;;;;;;5068264;28;20434;-68
2022/10/17 08:14:54;;;;;;;2.83;2.47;;;16.70;90.40;;;;;;5073592;28;20557;-69
2022/10/17 08:17:23;;;;;;;2.60;2.40;;;16.60;90.20;;;;;;5101293;28;20496;-69
2022/10/17 08:19:51;;;;;;;2.80;2.07;;;16.60;90.20;;;;;;5079983;28;21037;-69
2022/10/17 08:22:21;;;;;;;3.43;2.43;;;16.60;90.20;;;;;;5093181;28;20457;-69
2022/10/17 08:24:50;;;;;;;3.00;2.80;;;16.60;90.30;;;;;;5076193;28;20422;-69
2022/10/17 08:27:22;;;;;;;2.37;2.17;;;16.70;90.20;;;;;;5061825;28;20861;-69
2022/10/17 08:29:52;;;;;;;2.63;2.43;;;16.70;90.10;;;;;;5087922;28;20524;-69
2022/10/17 08:32:24;;;;;;;3.00;2.80;;;16.70;90.10;;;;;;5068601;28;20591;-69
2022/10/17 08:34:54;;;;;;;3.33;3.00;;;16.60;90.10;;;;;;5081427;28;20516;-69
2022/10/17 08:37:23;;;;;;;4.27;2.80;;;16.60;90.10;;;;;;5059072;28;20491;-69
2022/10/17 08:39:51;;;;;;;2.53;2.33;;;16.60;90.00;;;;;;5070860;28;21007;-70
2022/10/17 08:42:33;;;;;;;4.40;2.53;;;16.60;90.10;;;;;;5086316;28;20480;-69
2022/10/17 08:45:15;;;;;;;3.57;2.43;;;16.70;90.00;;;;;;5087510;28;20429;-69
2022/10/17 08:47:47;;;;;;;3.10;2.43;;;16.60;90.20;;;;;;5085298;28;20989;-68
2022/10/17 08:50:22;;;;;;;2.00;1.90;;;16.60;90.10;;;;;;5087710;28;20472;-69
2022/10/17 08:52:54;;;;;;;2.80;2.53;;;16.60;90.10;;;;;;5084092;28;20500;-70
2022/10/17 08:55:29;;;;;;;2.53;2.33;;;16.60;90.10;;;;;;5082562;28;20983;-72
2022/10/17 08:57:57;;;;;;;2.70;2.50;;;16.60;90.10;;;;;;5053591;28;21046;-70
2022/10/17 09:00:29;;;;;;;2.87;2.40;;;16.70;90.00;;;;;;5087716;28;20429;-71
2022/10/17 09:03:25;;;;;;;2.57;2.37;;;16.60;89.80;;;;;;5086445;28;20465;-71
2022/10/17 09:06:03;;;;;;;3.10;2.43;;;16.60;89.80;;;;;;5086503;28;20440;-72
2022/10/17 09:08:42;;;;;;;2.30;2.10;;;16.60;89.80;;;;;;5085827;28;20479;-72
2022/10/17 09:11:31;;;;;;;2.33;2.10;;;16.70;89.90;;;;;;5086757;28;20433;-69
2022/10/17 09:14:12;;;;;;;4.00;3.47;;;16.60;90.40;;;;;;5081655;28;20552;-68
2022/10/17 09:17:08;;;;;;;2.57;2.27;;;16.70;89.90;;;;;;5088326;28;20469;-68
2022/10/17 09:19:41;;;;;;;2.60;2.40;;;16.70;89.90;;;;;;5050969;28;20544;-69
2022/10/17 09:22:14;;;;;;;2.50;2.30;;;16.60;89.80;;;;;;5067358;28;20811;-68
2022/10/17 09:24:47;;;;;;;2.10;1.90;;;16.70;89.90;;;;;;5070621;28;20444;-68
2022/10/17 09:27:23;;;;;;;2.40;2.20;;;16.70;89.90;;;;;;5082415;28;20481;-68
2022/10/17 09:30:23;;;;;;;2.60;2.40;;;16.60;89.80;;;;;;5084899;28;20438;-68
2022/10/17 09:33:13;;;;;;;3.10;2.20;;;16.60;89.80;;;;;;5066380;28;20535;-68
2022/10/17 09:36:05;;;;;;;3.23;2.30;;;16.70;89.90;;;;;;5081794;28;20556;-69
2022/10/17 09:38:40;;;;;;;2.80;2.60;;;16.70;89.90;;;;;;5050218;28;20503;-69
2022/10/17 09:41:16;;;;;;;2.23;2.13;;;16.60;89.80;;;;;;5065439;28;20480;-69
2022/10/17 09:44:18;;;;;;;2.77;2.00;;;16.60;89.80;;;;;;5066383;28;20458;-69
2022/10/17 09:47:01;;;;;;;3.13;2.77;;;16.60;89.80;;;;;;5084946;28;20436;-68
2022/10/17 09:49:33;;;;;;;2.63;2.43;;;16.70;89.90;;;;;;5073516;28;20883;-67
2022/10/17 09:52:06;;;;;;;2.80;2.60;;;16.60;89.80;;;;;;5075740;28;20872;-69
2022/10/17 09:54:42;;;;;;;2.87;2.10;;;16.60;89.80;;;;;;5075057;28;20804;-68
2022/10/17 09:57:11;;;;;;;2.40;2.20;;;16.60;89.80;;;;;;5080735;28;20862;-69
2022/10/17 09:59:42;;;;;;;2.03;1.83;;;16.60;89.80;;;;;;5063152;28;20503;-69
2022/10/17 10:02:20;;;;;;;1.90;1.80;;;16.60;89.80;;;;;;5087788;28;20990;-69
2022/10/17 10:04:54;;;;;;;2.37;2.17;;;16.60;89.80;;;;;;5068254;28;20524;-70
2022/10/17 10:07:39;;;;;;;2.30;2.10;;;16.70;89.90;;;;;;5097245;28;20503;-69
2022/10/17 10:10:24;;;;;;;2.40;2.20;;;16.70;89.90;;;;;;5107141;28;20430;-69
2022/10/17 10:13:07;;;;;;;2.70;2.50;;;16.60;89.80;;;;;;5091076;28;20469;-69
2022/10/17 10:15:39;;;;;;;2.00;1.90;;;16.60;89.60;;;;;;5082743;28;20461;-69
2022/10/17 10:18:30;;;;;;;2.87;2.67;;;16.60;89.70;;;;;;5089512;28;20617;-68
2022/10/17 10:21:07;;;;;;;2.60;2.40;;;16.70;89.60;;;;;;5094643;28;20529;-69
2022/10/17 10:23:39;;;;;;;2.40;2.30;;;16.70;89.90;;;;;;5067487;28;20473;-69
2022/10/17 10:26:22;;;;;;;2.43;2.17;;;16.60;89.80;;;;;;5067454;28;20448;-68
2022/10/17 10:28:57;;;;;;;2.43;1.93;;;16.70;89.80;;;;;;5082926;28;20504;-68
2022/10/17 10:31:32;;;;;;;3.00;2.70;;;16.70;89.80;;;;;;5068750;28;20454;-70
2022/10/17 10:34:03;;;;;;;2.77;2.57;;;16.70;89.90;;;;;;5071529;28;21057;-72
2022/10/17 10:36:56;;;;;;;4.13;3.23;;;16.70;89.80;;;;;;5071275;28;20554;-72
2022/10/17 10:39:49;;;;;;;3.50;2.93;;;16.70;89.90;;;;;;5085314;28;20492;-72
2022/10/17 10:42:22;;;;;;;3.20;3.00;;;16.80;90.00;;;;;;5081298;28;20525;-72
2022/10/17 10:44:52;;;;;;;3.83;3.43;;;16.90;90.00;;;;;;5064078;28;20437;-72
2022/10/17 10:47:24;;;;;;;3.50;3.30;;;16.80;90.30;;;;;;5066846;28;20514;-72
2022/10/17 10:50:08;;;;;;;4.57;3.37;;;16.80;90.30;;;;;;5074575;28;20785;-70
2022/10/17 10:52:43;;;;;;;3.23;2.93;;;16.90;90.60;;;;;;5086434;28;20832;-71
2022/10/17 10:55:22;;;;;;;4.10;3.70;;;16.90;90.80;;;;;;5085341;28;20429;-73
2022/10/17 10:57:55;;;;;;;3.40;2.87;;;16.90;90.90;;;;;;5082562;28;20458;-71
2022/10/17 11:00:27;;;;;;;8.37;3.07;;;16.90;91.00;;;;;;5072107;28;20907;-72
2022/10/17 11:03:04;;;;;;;4.13;3.67;;;16.90;91.10;;;;;;5070809;28;20445;-72
2022/10/17 11:05:43;;;;;;;4.03;3.70;;;16.90;91.30;;;;;;5090178;28;20433;-71
2022/10/17 11:08:20;;;;;;;6.00;3.27;;;16.90;91.60;;;;;;5086013;28;20482;-73
2022/10/17 11:11:00;;;;;;;5.20;3.27;;;17.00;91.80;;;;;;5062174;28;20442;-72
2022/10/17 11:13:34;;;;;;;5.87;3.90;;;16.90;91.90;;;;;;5079975;28;20461;-71
2022/10/17 11:16:16;;;;;;;4.00;3.60;;;16.90;92.10;;;;;;5086762;28;20556;-70
2022/10/17 11:18:50;;;;;;;3.63;3.30;;;17.00;93.00;;;;;;5071531;28;20473;-71
2022/10/17 11:21:27;;;;;;;5.83;4.10;;;17.00;92.70;;;;;;5085518;28;20506;-72
2022/10/17 11:24:01;;;;;;;3.90;3.50;;;17.00;92.80;;;;;;5086590;28;20971;-72
2022/10/17 11:26:43;;;;;;;3.47;2.93;;;17.00;93.20;;;;;;5071926;28;20491;-72
2022/10/17 11:29:13;;;;;;;4.40;3.40;;;17.00;93.40;;;;;;5072104;28;20464;-72
2022/10/17 11:31:50;;;;;;;5.20;4.10;;;17.00;93.80;;;;;;5095055;28;20928;-72
2022/10/17 11:34:22;;;;;;;6.43;3.83;;;17.00;93.80;;;;;;5088264;28;20519;-72
2022/10/17 11:36:54;;;;;;;3.77;3.20;;;17.00;94.20;;;;;;5091757;28;20458;-72
2022/10/17 11:39:31;;;;;;;9.20;3.80;;;17.00;94.20;;;;;;5068747;28;20461;-72
2022/10/17 11:42:06;;;;;;;4.97;4.03;;;17.10;94.70;;;;;;5081540;28;21040;-72
2022/10/17 11:44:36;;;;;;;5.83;3.33;;;17.10;94.80;;;;;;5090709;28;20426;-70
2022/10/17 11:47:11;;;;;;;6.33;3.50;;;17.10;95.00;;;;;;5061983;28;21006;-71
2022/10/17 11:49:43;;;;;;;4.90;3.77;;;17.10;95.20;;;;;;5063302;28;20421;-72
2022/10/17 11:52:28;;;;;;;3.90;3.60;;;17.10;95.40;;;;;;5082600;28;20441;-71
2022/10/17 11:55:20;;;;;;;5.90;4.00;;;17.10;95.60;;;;;;5089458;28;20456;-71
2022/10/17 11:58:13;;;;;;;3.77;3.47;;;17.10;95.90;;;;;;5088830;28;20551;-71
2022/10/17 12:00:58;;;;;;;7.20;5.30;;;17.10;96.10;;;;;;5061188;28;20943;-67
2022/10/17 12:03:36;;;;;;;4.85;4.00;;;17.10;96.80;;;;;;5066847;28;20440;-70
2022/10/17 12:06:13;;;;;;;7.87;3.87;;;17.20;97.20;;;;;;5071386;28;20252;-70
2022/10/17 12:08:48;;;;;;;5.63;3.30;;;17.20;96.60;;;;;;5080087;28;21011;-70
2022/10/17 12:11:33;;;;;;;7.60;2.97;;;17.20;96.60;;;;;;5066150;28;20852;-71
2022/10/17 12:14:03;;;;;;;3.33;2.67;;;17.20;96.50;;;;;;5064259;28;20464;-72
2022/10/17 12:16:46;;;;;;;7.13;2.77;;;17.20;96.30;;;;;;5086525;28;20453;-70
2022/10/17 12:19:32;;;;;;;3.80;3.43;;;17.20;96.40;;;;;;5084773;28;20457;-72
2022/10/17 12:22:17;;;;;;;5.97;3.57;;;17.20;96.20;;;;;;5043895;22;20489;-74
2022/10/17 12:24:55;;;;;;;3.47;2.67;;;17.20;96.30;;;;;;4974118;28;20438;-73
2022/10/17 12:27:32;;;;;;;3.73;2.97;;;17.20;96.30;;;;;;4955649;28;20455;-73
2022/10/17 12:30:04;;;;;;;3.50;2.60;;;17.20;96.30;;;;;;4964138;28;20486;-73
2022/10/17 12:32:33;;;;;;;3.50;2.90;;;17.20;96.10;;;;;;4938909;28;20471;-73
2022/10/17 12:35:24;;;;;;;5.43;3.33;;;17.20;96.40;;;;;;4920609;28;20985;-73
2022/10/17 12:38:18;;;;;;;6.60;3.60;;;17.20;96.30;;;;;;4954757;28;20630;-73
2022/10/17 12:41:01;;;;;;;3.50;2.63;;;17.20;96.30;;;;;;4921537;29;20465;-72
2022/10/17 12:43:49;;;;;;;4.03;2.60;;;17.20;96.50;;;;;;4990155;28;20513;-72
2022/10/17 12:46:55;;;;;;;3.33;2.70;;;17.30;96.60;;;;;;5026475;28;20431;-73
2022/10/17 12:49:40;;;;;;;2.87;2.40;;;17.30;96.70;;;;;;4939795;29;20543;-73
2022/10/17 12:52:25;;;;;;;4.20;2.77;;;17.30;96.60;;;;;;4961925;28;20522;-70
2022/10/17 12:55:01;;;;;;;4.17;2.87;;;17.30;96.60;;;;;;4951597;28;20458;-71
2022/10/17 12:57:54;;;;;;;4.70;2.53;;;17.30;96.60;;;;;;4938499;28;20475;-69
2022/10/17 13:00:28;;;;;;;3.10;2.40;;;17.30;96.60;;;;;;4945980;28;20503;-70
2022/10/17 13:03:02;;;;;;;3.27;2.53;;;17.30;96.50;;;;;;4945204;28;21044;-69
2022/10/17 13:05:34;;;;;;;5.27;2.93;;;17.30;96.60;;;;;;4946580;29;20792;-69
2022/10/17 13:08:08;;;;;;;4.53;2.70;;;17.30;96.60;;;;;;4943477;28;20476;-68
2022/10/17 13:10:39;;;;;;;3.83;2.70;;;17.30;96.80;;;;;;4945383;28;20523;-69
2022/10/17 13:13:16;;;;;;;3.57;3.23;;;17.30;97.00;;;;;;4944306;28;20467;-71
2022/10/17 13:15:48;;;;;;;5.27;3.40;;;17.30;96.90;;;;;;4954869;28;20424;-70
2022/10/17 13:18:21;;;;;;;4.53;2.33;;;17.30;97.10;;;;;;4943610;28;20479;-69
2022/10/17 13:20:59;;;;;;;3.30;2.53;;;17.30;97.10;;;;;;4947876;29;20513;-71
2022/10/17 13:23:31;;;;;;;6.23;2.70;;;17.30;97.20;;;;;;4947063;28;20566;-71
2022/10/17 13:26:13;;;;;;;3.07;2.03;;;17.30;97.40;;;;;;4937609;28;20447;-71